createdAt,value
2019-06-10T00:00:31.272Z,99.90
2019-06-10T00:03:02.844Z,99.90
2019-06-10T00:05:34.783Z,99.90
2019-06-10T00:08:05.794Z,99.90
2019-06-10T00:10:38.959Z,99.90
2019-06-10T00:13:11.887Z,99.90
2019-06-10T00:15:46.752Z,99.90
2019-06-10T00:18:37.356Z,99.90
2019-06-10T00:20:57.635Z,99.90
2019-06-10T00:23:32.007Z,99.90
2019-06-10T00:26:06.110Z,99.90
2019-06-10T00:28:36.647Z,99.90
2019-06-10T00:31:11.605Z,99.90
2019-06-10T00:33:46.261Z,99.90
2019-06-10T00:36:21.579Z,99.90
2019-06-10T00:38:55.299Z,99.90
2019-06-10T00:41:31.322Z,99.90
2019-06-10T00:44:08.336Z,99.90
2019-06-10T00:46:43.147Z,99.90
2019-06-10T00:49:17.602Z,99.90
2019-06-10T00:51:50.980Z,99.90
2019-06-10T00:54:24.473Z,99.90
2019-06-10T00:56:57.346Z,99.90
2019-06-10T00:59:31.282Z,99.90
2019-06-10T01:02:03.339Z,99.90
2019-06-10T01:04:36.608Z,99.90
2019-06-10T01:07:08.548Z,99.90
2019-06-10T01:09:41.275Z,99.90
2019-06-10T01:12:14.936Z,99.90
2019-06-10T01:14:51.635Z,99.90
2019-06-10T01:17:28.044Z,99.90
2019-06-10T01:20:01.582Z,99.90
2019-06-10T01:22:34.345Z,99.90
2019-06-10T01:25:05.276Z,99.90
2019-06-10T01:27:41.071Z,99.90
2019-06-10T01:30:20.609Z,99.90
2019-06-10T01:32:47.587Z,99.90
2019-06-10T01:35:21.094Z,99.90
2019-06-10T01:37:54.915Z,99.90
2019-06-10T01:40:28.010Z,99.90
2019-06-10T01:43:01.120Z,99.90
2019-06-10T01:45:35.405Z,99.90
2019-06-10T01:48:13.114Z,99.90
2019-06-10T01:50:47.304Z,99.90
2019-06-10T01:53:18.813Z,99.90
2019-06-10T01:55:52.200Z,99.90
2019-06-10T01:58:26.983Z,99.90
2019-06-10T02:01:18.634Z,99.90
2019-06-10T02:03:52.024Z,99.90
2019-06-10T02:06:26.000Z,99.90
2019-06-10T02:09:06.828Z,99.90
2019-06-10T02:11:41.415Z,99.90
2019-06-10T02:14:17.448Z,99.90
2019-06-10T02:16:50.670Z,99.90
2019-06-10T02:19:22.929Z,99.90
2019-06-10T02:21:56.162Z,99.90
2019-06-10T02:24:33.028Z,99.90
2019-06-10T02:27:06.693Z,99.90
2019-06-10T02:29:37.630Z,99.90
2019-06-10T02:32:15.891Z,99.90
2019-06-10T02:35:02.014Z,99.90
2019-06-10T02:37:30.742Z,99.90
2019-06-10T02:39:54.349Z,99.90
2019-06-10T02:42:35.656Z,99.90
2019-06-10T02:45:06.402Z,99.90
2019-06-10T02:47:39.969Z,99.90
2019-06-10T02:50:16.225Z,99.90
2019-06-10T02:53:15.265Z,99.90
2019-06-10T02:55:48.319Z,99.90
2019-06-10T02:58:30.394Z,99.90
2019-06-10T03:00:58.304Z,99.90
2019-06-10T03:03:39.452Z,99.90
2019-06-10T03:06:08.716Z,99.90
2019-06-10T03:08:38.626Z,99.90
2019-06-10T03:11:08.749Z,99.90
2019-06-10T03:13:38.830Z,99.90
2019-06-10T03:16:30.024Z,99.90
2019-06-10T03:19:02.975Z,99.90
2019-06-10T03:21:37.344Z,99.90
2019-06-10T03:24:13.141Z,99.90
2019-06-10T03:26:46.175Z,99.90
2019-06-10T03:29:23.307Z,99.90
2019-06-10T03:31:59.118Z,99.90
2019-06-10T03:34:41.239Z,99.90
2019-06-10T03:37:07.046Z,99.90
2019-06-10T03:39:43.422Z,99.90
2019-06-10T03:42:16.841Z,99.90
2019-06-10T03:44:52.523Z,99.90
2019-06-10T03:47:25.908Z,99.90
2019-06-10T03:50:03.265Z,99.90
2019-06-10T03:52:37.696Z,99.90
2019-06-10T03:55:12.278Z,99.90
2019-06-10T03:57:45.535Z,99.90
2019-06-10T04:00:19.403Z,99.90
2019-06-10T04:02:53.209Z,99.90
2019-06-10T04:05:28.888Z,99.90
2019-06-10T04:07:58.272Z,99.90
2019-06-10T04:10:29.621Z,99.90
2019-06-10T04:13:02.582Z,99.90
2019-06-10T04:15:36.811Z,99.90
2019-06-10T04:18:09.448Z,99.90
2019-06-10T04:20:42.670Z,99.90
2019-06-10T04:23:12.652Z,99.90
2019-06-10T04:25:47.297Z,99.90
2019-06-10T04:28:23.128Z,99.90
2019-06-10T04:30:55.647Z,99.90
2019-06-10T04:33:27.633Z,99.90
2019-06-10T04:36:03.148Z,99.90
2019-06-10T04:38:36.895Z,99.90
2019-06-10T04:41:12.602Z,99.90
2019-06-10T04:43:43.462Z,99.90
2019-06-10T04:46:18.593Z,99.90
2019-06-10T04:48:50.176Z,99.90
2019-06-10T04:51:26.629Z,99.90
2019-06-10T04:54:03.091Z,99.90
2019-06-10T04:56:38.151Z,99.90
2019-06-10T04:59:12.676Z,99.90
2019-06-10T05:01:46.683Z,99.90
2019-06-10T05:04:21.636Z,99.90
2019-06-10T05:06:56.575Z,99.90
2019-06-10T05:09:31.286Z,99.90
2019-06-10T05:12:08.769Z,99.90
2019-06-10T05:14:40.158Z,99.90
2019-06-10T05:17:12.723Z,99.90
2019-06-10T05:19:46.463Z,99.90
2019-06-10T05:22:19.605Z,99.90
2019-06-10T05:24:55.147Z,99.90
2019-06-10T05:27:38.303Z,99.90
2019-06-10T05:30:12.328Z,99.90
2019-06-10T05:32:46.241Z,99.90
2019-06-10T05:35:21.041Z,99.90
2019-06-10T05:37:56.126Z,99.90
2019-06-10T05:40:29.431Z,99.90
2019-06-10T05:43:02.458Z,99.90
2019-06-10T05:45:35.891Z,99.90
2019-06-10T05:48:07.807Z,99.90
2019-06-10T05:50:42.809Z,99.90
2019-06-10T05:53:17.123Z,99.90
2019-06-10T05:55:52.818Z,99.90
2019-06-10T05:58:26.501Z,99.90
2019-06-10T06:01:02.768Z,99.90
2019-06-10T06:03:36.932Z,99.90
2019-06-10T06:06:12.476Z,99.90
2019-06-10T06:08:46.155Z,99.90
2019-06-10T06:11:22.952Z,99.90
2019-06-10T06:13:55.391Z,99.90
2019-06-10T06:16:32.642Z,99.90
2019-06-10T06:19:07.774Z,99.90
2019-06-10T06:21:44.714Z,99.90
2019-06-10T06:24:15.886Z,99.90
2019-06-10T06:26:46.214Z,99.90
2019-06-10T06:29:17.366Z,99.90
2019-06-10T06:31:52.370Z,99.90
2019-06-10T06:34:23.144Z,99.90
2019-06-10T06:36:58.542Z,99.90
2019-06-10T06:39:33.415Z,99.90
2019-06-10T06:42:06.435Z,99.90
2019-06-10T06:44:43.289Z,99.90
2019-06-10T06:47:13.342Z,99.90
2019-06-10T06:49:46.502Z,99.90
2019-06-10T06:52:38.859Z,99.90
2019-06-10T06:54:54.766Z,99.90
2019-06-10T06:57:28.902Z,99.90
2019-06-10T07:00:34.273Z,99.90
2019-06-10T07:02:38.805Z,99.90
2019-06-10T07:05:12.524Z,99.90
2019-06-10T07:07:43.509Z,99.90
2019-06-10T07:10:17.519Z,99.90
2019-06-10T07:12:53.087Z,99.90
2019-06-10T07:15:34.090Z,99.90
2019-06-10T07:18:05.271Z,99.90
2019-06-10T07:20:38.219Z,99.90
2019-06-10T07:23:08.187Z,99.90
2019-06-10T07:25:42.243Z,99.90
2019-06-10T07:28:13.855Z,99.90
2019-06-10T07:30:52.759Z,99.90
2019-06-10T07:33:23.807Z,99.90
2019-06-10T07:35:57.091Z,99.90
2019-06-10T07:38:33.957Z,99.90
2019-06-10T07:41:06.307Z,99.90
2019-06-10T07:43:42.398Z,99.90
2019-06-10T07:46:15.552Z,99.90
2019-06-10T07:48:49.349Z,99.90
2019-06-10T07:51:22.586Z,99.90
2019-06-10T07:53:56.281Z,99.90
2019-06-10T07:56:31.744Z,99.90
2019-06-10T07:59:04.207Z,99.90
2019-06-10T08:01:36.684Z,99.90
2019-06-10T08:04:12.071Z,99.90
2019-06-10T08:06:45.858Z,99.90
2019-06-10T08:09:19.679Z,99.90
2019-06-10T08:11:53.383Z,99.90
2019-06-10T08:14:26.755Z,99.90
2019-06-10T08:17:02.935Z,99.90
2019-06-10T08:19:38.721Z,99.90
2019-06-10T08:22:13.019Z,99.90
2019-06-10T08:24:46.123Z,99.90
2019-06-10T08:27:33.434Z,99.90
2019-06-10T08:30:21.617Z,99.90
2019-06-10T08:32:45.301Z,99.90
2019-06-10T08:35:16.703Z,99.90
2019-06-10T08:37:49.858Z,99.90
2019-06-10T08:40:22.999Z,99.90
2019-06-10T08:42:53.753Z,99.90
2019-06-10T08:45:26.815Z,99.90
2019-06-10T08:48:02.528Z,99.90
2019-06-10T08:50:34.240Z,99.90
2019-06-10T08:53:14.772Z,99.90
2019-06-10T08:55:46.162Z,99.90
2019-06-10T08:58:19.168Z,99.90
2019-06-10T09:00:53.559Z,99.90
2019-06-10T09:03:27.137Z,99.90
2019-06-10T09:06:03.434Z,99.90
2019-06-10T09:08:39.655Z,99.90
2019-06-10T09:11:13.067Z,99.90
2019-06-10T09:13:53.025Z,99.90
2019-06-10T09:16:27.679Z,99.90
2019-06-10T09:19:02.417Z,99.90
2019-06-10T09:21:37.076Z,99.90
2019-06-10T09:24:12.839Z,99.90
2019-06-10T09:26:48.219Z,99.90
2019-06-10T09:29:22.167Z,99.90
2019-06-10T09:31:55.914Z,99.90
2019-06-10T09:34:33.069Z,99.90
2019-06-10T09:37:06.216Z,99.90
2019-06-10T09:39:44.199Z,99.90
2019-06-10T09:42:14.373Z,99.90
2019-06-10T09:44:49.227Z,99.90
2019-06-10T09:47:23.682Z,99.90
2019-06-10T09:49:56.959Z,99.90
2019-06-10T09:52:32.973Z,99.90
2019-06-10T09:55:08.856Z,99.90
2019-06-10T09:57:45.141Z,99.90
2019-06-10T10:00:22.789Z,99.60
2019-06-10T10:02:57.835Z,99.10
2019-06-10T10:05:33.823Z,99.70
2019-06-10T10:08:08.259Z,99.00
2019-06-10T10:10:47.136Z,98.90
2019-06-10T10:13:23.068Z,99.20
2019-06-10T10:15:56.229Z,99.10
2019-06-10T10:18:32.624Z,99.00
2019-06-10T10:21:03.816Z,99.70
2019-06-10T10:23:50.137Z,98.20
2019-06-10T10:26:08.320Z,97.40
2019-06-10T10:28:42.812Z,96.60
2019-06-10T10:31:19.295Z,96.20
2019-06-10T10:33:52.800Z,96.40
2019-06-10T10:36:27.496Z,95.60
2019-06-10T10:39:02.277Z,95.30
2019-06-10T10:41:37.249Z,95.30
2019-06-10T10:44:08.859Z,95.60
2019-06-10T10:46:42.810Z,95.20
2019-06-10T10:49:19.200Z,94.80
2019-06-10T10:51:51.427Z,94.70
2019-06-10T10:54:32.972Z,94.10
2019-06-10T10:56:59.017Z,93.60
2019-06-10T10:59:33.218Z,94.10
2019-06-10T11:02:07.520Z,93.20
2019-06-10T11:04:46.236Z,93.60
2019-06-10T11:07:21.777Z,93.30
2019-06-10T11:09:56.683Z,91.80
2019-06-10T11:12:28.128Z,91.80
2019-06-10T11:15:05.083Z,92.00
2019-06-10T11:17:36.735Z,91.30
2019-06-10T11:20:08.899Z,90.70
2019-06-10T11:22:39.835Z,90.80
2019-06-10T11:25:12.456Z,90.50
2019-06-10T11:27:46.398Z,90.30
2019-06-10T11:30:19.755Z,90.50
2019-06-10T11:32:55.892Z,90.80
2019-06-10T11:35:25.428Z,89.80
2019-06-10T11:37:58.660Z,86.70
2019-06-10T11:40:34.099Z,86.80
2019-06-10T11:43:09.119Z,85.00
2019-06-10T11:45:48.321Z,84.80
2019-06-10T11:48:17.855Z,81.60
2019-06-10T11:50:49.196Z,81.50
2019-06-10T11:53:22.703Z,80.50
2019-06-10T11:55:51.793Z,79.80
2019-06-10T11:58:23.428Z,79.10
2019-06-10T12:00:58.798Z,79.80
2019-06-10T12:03:33.004Z,78.70
2019-06-10T12:06:06.411Z,78.20
2019-06-10T12:08:38.963Z,78.20
2019-06-10T12:11:12.404Z,78.80
2019-06-10T12:13:42.780Z,78.60
2019-06-10T12:17:05.584Z,75.70
2019-06-10T12:18:46.898Z,75.10
2019-06-10T12:21:19.200Z,75.30
2019-06-10T12:23:57.137Z,75.80
2019-06-10T12:26:30.215Z,74.30
2019-06-10T12:29:05.569Z,75.60
2019-06-10T12:31:37.295Z,73.40
2019-06-10T12:34:12.325Z,73.60
2019-06-10T12:36:41.846Z,73.70
2019-06-10T12:39:17.347Z,73.70
2019-06-10T12:41:55.114Z,73.80
2019-06-10T12:44:28.418Z,73.30
2019-06-10T12:47:07.549Z,72.20
2019-06-10T12:49:39.210Z,73.10
2019-06-10T12:52:12.664Z,72.10
2019-06-10T12:54:43.995Z,72.70
2019-06-10T12:57:16.377Z,71.70
2019-06-10T12:59:45.722Z,71.90
2019-06-10T13:02:22.650Z,70.50
2019-06-10T13:04:48.918Z,71.10
2019-06-10T13:07:24.447Z,69.70
2019-06-10T13:09:59.674Z,69.40
2019-06-10T13:12:33.507Z,70.50
2019-06-10T13:15:08.894Z,70.00
2019-06-10T13:17:44.021Z,69.60
2019-06-10T13:20:17.347Z,69.10
2019-06-10T13:22:54.400Z,68.50
2019-06-10T13:25:28.291Z,69.30
2019-06-10T13:28:06.701Z,69.70
2019-06-10T13:30:38.602Z,69.20
2019-06-10T13:33:11.061Z,69.60
2019-06-10T13:35:44.278Z,68.00
2019-06-10T13:38:17.407Z,67.20
2019-06-10T13:40:52.714Z,64.90
2019-06-10T13:43:24.943Z,65.60
2019-06-10T13:45:58.498Z,65.70
2019-06-10T13:48:29.061Z,65.90
2019-06-10T13:51:00.633Z,64.30
2019-06-10T13:53:32.511Z,65.70
2019-06-10T13:56:28.723Z,65.40
2019-06-10T13:58:34.806Z,65.50
2019-06-10T14:01:13.864Z,65.60
2019-06-10T14:03:43.242Z,64.80
2019-06-10T14:06:32.654Z,64.90
2019-06-10T14:08:49.339Z,65.30
2019-06-10T14:11:25.791Z,65.90
2019-06-10T14:13:55.743Z,65.10
2019-06-10T14:16:28.776Z,65.10
2019-06-10T14:19:03.762Z,71.30
2019-06-10T14:21:36.587Z,73.40
2019-06-10T14:24:12.810Z,74.80
2019-06-10T14:26:47.393Z,79.20
2019-06-10T14:29:20.287Z,80.90
2019-06-10T14:31:53.459Z,80.40
2019-06-10T14:34:29.295Z,80.90
2019-06-10T14:37:01.863Z,78.90
2019-06-10T14:39:35.531Z,79.00
2019-06-10T14:42:10.271Z,78.80
2019-06-10T14:44:44.223Z,79.10
2019-06-10T14:47:16.897Z,78.90
2019-06-10T14:49:52.990Z,79.70
2019-06-10T14:52:27.550Z,78.80
2019-06-10T14:55:02.628Z,78.90
2019-06-10T14:57:36.607Z,78.70
2019-06-10T15:00:13.210Z,78.40
2019-06-10T15:02:44.864Z,78.10
2019-06-10T15:05:17.382Z,78.70
2019-06-10T15:07:52.699Z,77.20
2019-06-10T15:10:25.731Z,78.10
2019-06-10T15:12:59.431Z,76.90
2019-06-10T15:15:29.947Z,76.20
2019-06-10T15:18:02.949Z,76.40
2019-06-10T15:20:42.853Z,77.30
2019-06-10T15:23:17.027Z,75.80
2019-06-10T15:25:52.400Z,76.30
2019-06-10T15:28:23.586Z,77.00
2019-06-10T15:30:57.008Z,76.30
2019-06-10T15:33:32.410Z,75.90
2019-06-10T15:36:04.849Z,75.80
2019-06-10T15:38:38.111Z,75.40
2019-06-10T15:41:15.006Z,75.00
2019-06-10T15:43:47.295Z,75.90
2019-06-10T15:46:19.573Z,77.40
2019-06-10T15:48:54.881Z,77.60
2019-06-10T15:51:26.824Z,77.00
2019-06-10T15:54:02.613Z,78.10
2019-06-10T15:56:46.985Z,78.10
2019-06-10T15:59:13.311Z,78.40
2019-06-10T16:01:46.399Z,77.40
2019-06-10T16:04:25.692Z,75.50
2019-06-10T16:06:58.311Z,74.50
2019-06-10T16:09:33.157Z,73.40
2019-06-10T16:12:07.937Z,73.20
2019-06-10T16:14:39.514Z,72.30
2019-06-10T16:17:12.901Z,72.20
2019-06-10T16:19:47.199Z,71.00
2019-06-10T16:22:24.398Z,69.70
2019-06-10T16:24:56.296Z,67.50
2019-06-10T16:27:43.396Z,66.20
2019-06-10T16:30:02.771Z,64.90
2019-06-10T16:32:35.104Z,63.60
2019-06-10T16:35:07.975Z,62.40
2019-06-10T16:37:42.236Z,61.10
2019-06-10T16:40:17.496Z,59.10
2019-06-10T16:42:53.228Z,59.60
2019-06-10T16:45:29.104Z,59.40
2019-06-10T16:48:02.432Z,58.70
2019-06-10T16:50:37.188Z,57.70
2019-06-10T16:53:08.059Z,57.20
2019-06-10T16:55:40.545Z,57.00
2019-06-10T16:58:13.042Z,56.70
2019-06-10T17:00:46.859Z,57.10
2019-06-10T17:03:20.312Z,57.20
2019-06-10T17:05:53.337Z,56.30
2019-06-10T17:08:26.178Z,56.20
2019-06-10T17:10:58.847Z,56.30
2019-06-10T17:13:33.221Z,55.80
2019-06-10T17:16:08.063Z,55.20
2019-06-10T17:18:42.824Z,55.50
2019-06-10T17:21:21.115Z,55.30
2019-06-10T17:23:54.848Z,55.10
2019-06-10T17:26:34.473Z,54.70
2019-06-10T17:29:02.853Z,54.40
2019-06-10T17:31:35.191Z,54.00
2019-06-10T17:34:07.785Z,55.10
2019-06-10T17:36:42.707Z,55.10
2019-06-10T17:39:17.443Z,54.80
2019-06-10T17:41:54.783Z,54.80
2019-06-10T17:44:32.453Z,55.40
2019-06-10T17:47:08.839Z,55.90
2019-06-10T17:49:41.973Z,56.10
2019-06-10T17:52:13.143Z,56.40
2019-06-10T17:54:47.359Z,57.70
2019-06-10T17:57:23.149Z,59.70
2019-06-10T17:59:58.048Z,63.10
2019-06-10T18:02:34.565Z,65.80
2019-06-10T18:05:07.679Z,67.10
2019-06-10T18:07:41.310Z,68.90
2019-06-10T18:10:15.367Z,70.60
2019-06-10T18:12:52.628Z,70.90
2019-06-10T18:15:24.184Z,68.70
2019-06-10T18:17:58.399Z,67.30
2019-06-10T18:20:33.553Z,66.90
2019-06-10T18:23:08.479Z,68.10
2019-06-10T18:25:43.378Z,69.30
2019-06-10T18:28:17.214Z,70.90
2019-06-10T18:30:53.141Z,71.90
2019-06-10T18:33:24.015Z,72.80
2019-06-10T18:35:54.581Z,73.40
2019-06-10T18:38:25.092Z,74.00
2019-06-10T18:40:55.612Z,74.40
2019-06-10T18:43:25.447Z,74.90
2019-06-10T18:45:55.979Z,75.60
2019-06-10T18:48:35.464Z,76.40
2019-06-10T18:51:07.369Z,75.50
2019-06-10T18:53:41.990Z,76.90
2019-06-10T18:56:12.915Z,77.40
2019-06-10T18:58:45.729Z,78.20
2019-06-10T19:01:18.398Z,78.50
2019-06-10T19:03:52.036Z,79.00
2019-06-10T19:06:25.759Z,78.80
2019-06-10T19:09:03.112Z,79.50
2019-06-10T19:11:34.125Z,79.70
2019-06-10T19:14:06.215Z,80.10
2019-06-10T19:16:40.184Z,80.60
2019-06-10T19:19:13.586Z,80.90
2019-06-10T19:22:01.822Z,81.60
2019-06-10T19:24:23.455Z,81.50
2019-06-10T19:27:02.050Z,82.20
2019-06-10T19:29:42.318Z,82.10
2019-06-10T19:32:08.418Z,82.80
2019-06-10T19:34:47.320Z,83.20
2019-06-10T19:37:17.310Z,83.70
2019-06-10T19:39:53.732Z,84.20
2019-06-10T19:42:23.847Z,84.60
2019-06-10T19:44:57.871Z,84.50
2019-06-10T19:47:34.658Z,85.00
2019-06-10T19:50:07.458Z,85.50
2019-06-10T19:52:41.590Z,85.60
2019-06-10T19:55:15.615Z,86.50
2019-06-10T19:57:49.641Z,86.90
2019-06-10T20:00:25.036Z,87.40
2019-06-10T20:02:56.123Z,88.10
2019-06-10T20:05:29.330Z,88.40
2019-06-10T20:08:02.984Z,88.50
2019-06-10T20:10:35.954Z,89.30
2019-06-10T20:13:06.308Z,90.20
2019-06-10T20:15:37.381Z,90.90
2019-06-10T20:18:12.270Z,91.20
2019-06-10T20:20:47.248Z,91.70
2019-06-10T20:23:21.826Z,92.40
2019-06-10T20:25:55.902Z,93.20
2019-06-10T20:28:32.151Z,94.10
2019-06-10T20:31:06.815Z,95.40
2019-06-10T20:33:43.371Z,96.40
2019-06-10T20:36:23.260Z,97.80
2019-06-10T20:38:54.942Z,99.80
2019-06-10T20:41:25.263Z,99.90
2019-06-10T20:43:56.417Z,99.90
2019-06-10T20:46:32.365Z,99.90
2019-06-10T20:49:03.483Z,99.90
2019-06-10T20:51:48.814Z,99.90
2019-06-10T20:54:12.719Z,99.90
2019-06-10T20:56:48.621Z,99.90
2019-06-10T20:59:17.814Z,99.90
2019-06-10T21:01:51.249Z,99.90
2019-06-10T21:04:26.244Z,99.90
2019-06-10T21:07:02.488Z,99.90
2019-06-10T21:09:35.903Z,99.90
2019-06-10T21:12:09.955Z,99.90
2019-06-10T21:14:42.717Z,99.90
2019-06-10T21:17:17.440Z,99.90
2019-06-10T21:19:51.451Z,99.90
2019-06-10T21:22:24.011Z,99.90
2019-06-10T21:24:55.683Z,99.90
2019-06-10T21:27:28.174Z,99.90
2019-06-10T21:30:03.125Z,99.90
2019-06-10T21:32:37.200Z,99.90
2019-06-10T21:35:08.867Z,99.90
2019-06-10T21:37:44.873Z,99.90
2019-06-10T21:40:17.247Z,99.90
2019-06-10T21:42:54.119Z,99.90
2019-06-10T21:45:27.679Z,99.90
2019-06-10T21:48:02.611Z,99.90
2019-06-10T21:50:36.352Z,99.90
2019-06-10T21:53:07.203Z,99.90
2019-06-10T21:55:42.049Z,99.90
2019-06-10T21:58:17.631Z,99.90
2019-06-10T22:01:08.301Z,99.90
2019-06-10T22:03:29.193Z,99.90
2019-06-10T22:06:01.862Z,99.90
2019-06-10T22:08:36.075Z,99.90
2019-06-10T22:11:09.218Z,99.90
2019-06-10T22:13:43.986Z,99.90
2019-06-10T22:16:19.007Z,99.90
2019-06-10T22:18:52.923Z,99.90
2019-06-10T22:21:25.699Z,99.90
2019-06-10T22:23:59.391Z,99.90
2019-06-10T22:26:32.408Z,99.90
2019-06-10T22:29:05.504Z,99.90
2019-06-10T22:31:52.303Z,99.90
2019-06-10T22:34:22.926Z,99.90
2019-06-10T22:36:57.857Z,99.90
2019-06-10T22:39:33.506Z,99.90
2019-06-10T22:42:09.254Z,99.90
2019-06-10T22:44:43.071Z,99.90
2019-06-10T22:47:15.781Z,99.90
2019-06-10T22:49:49.979Z,99.90
2019-06-10T22:52:23.090Z,99.90
2019-06-10T22:54:58.415Z,99.90
2019-06-10T22:57:30.655Z,99.90
2019-06-10T23:00:03.456Z,99.90
2019-06-10T23:02:37.095Z,99.90
2019-06-10T23:05:13.039Z,99.90
2019-06-10T23:07:46.656Z,99.90
2019-06-10T23:10:24.414Z,99.90
2019-06-10T23:12:58.500Z,99.90
2019-06-10T23:15:32.187Z,99.90
2019-06-10T23:18:03.803Z,99.90
2019-06-10T23:20:38.384Z,99.90
2019-06-10T23:23:12.613Z,99.90
2019-06-10T23:25:47.523Z,99.90
2019-06-10T23:28:22.051Z,99.90
2019-06-10T23:30:58.593Z,99.90
2019-06-10T23:33:28.799Z,99.90
2019-06-10T23:36:04.026Z,99.90
2019-06-10T23:38:36.871Z,99.90
2019-06-10T23:41:10.341Z,99.90
2019-06-10T23:43:43.536Z,99.90
2019-06-10T23:46:17.279Z,99.90
2019-06-10T23:48:51.339Z,99.90
2019-06-10T23:51:25.281Z,99.90
2019-06-10T23:54:01.997Z,99.90
2019-06-10T23:56:35.935Z,99.90
2019-06-10T23:59:11.930Z,99.90
